Jump to content

[TÓPICOS MESCLADOS] Learjet vara a pista no SDU


Fábio A.

Recommended Posts

Segundo informações um Learjet varou a pouco a pista do SDU, enquanto pousava pela 02, e foi parar na baia de guanabara. Parece que os pax e tripulantes estão bem.

Link to comment
Share on other sites

  • Replies 111
  • Created
  • Last Reply

Avião particular cai na Baía ao decolar, dizem bombeiros.

 

Bombeiros informam que três passageiros foram resgatados e estão bem.

Ainda não há informações sobre o que teria provocado a queda.

 

Um avião particular de pequeno porte caiu na Baía de Guanabara ao decolar do Aeroporto Santos Dumont, no Centro do Rio, na manhã desta quinta-feira (12).

 

Segundo os bombeiros do aeroporto, três passageiros foram resgatados e passam bem. Ainda não há informações sobre o que teria provocado o acidente.

 

Fonte: G1

Link to comment
Share on other sites

Um jato pequeno caiu a pouco no mar. Não se sabe se em procedimento de pouso ou decolagem. Segundo a CBN, era um jato pequeno e 3 pessoas foram resgatadas.

 

Esta passando agora ao vivo na Globonews. Foi um Learjet que varou a pista e esta com parte da fuselagem dentro da água. Os pilotos e passageiros foram retirados. Os bombeiros estão tentando içar a aeronave.

 

http://g1.globo.com/rio-de-janeiro/noticia...-bombeiros.html

Link to comment
Share on other sites

Com certeza pelas imagens me parece um learjet, para mim é um Learjet-31A, as informações passadas são que o ocorrido aconteceu no procedimento de pouso e o avião não teria conseguido parar, mas nada confirmado ainda.. :cutuca:

Link to comment
Share on other sites

Tudo segundo Globonews:

Deram um close e na porta tinha um Ocean Air Taxi Aereo escrito.

Segundo eles, os bombeiros estao ainda mergulhando procurando o piloto?!?!?!

Link to comment
Share on other sites

O cara que esta sendo entrevistado pela GloboNews diz que eh melhor isso acontecer aqui no SDU que vai pra agua do que em CGH que vai pra cima dos predios.

Ele so se esqueceu que CGH tem meio quilometro de pista a mais que SDU...

Link to comment
Share on other sites

 

 

Avião de pequeno porte cai na baía de Guanabara, no Rio

 

DIANA BRITO

DO RIO

 

Um avião de pequeno porte caiu na manhã desta quinta-feira na baía de Guanabara, no centro do Rio, próximo a cabeceira da pista do aeroporto Santos Dumont, com três pessoas a bordo.

 

 

O acidente aconteceu por volta das 8h40, quando o avião decolava do aeroporto. Segundo informações preliminares, o pneu da aeronave teria furado, o que provocou instabilidade.

 

Após a queda, duas lanchas e dois helicópteros do Corpo de Bombeiros foram acionados.

 

Devido aos trabalhos de resgate, o aeroporto Santos Dumont precisou ser fechado para pousos e decolagens.

 

Fonte: Folha/UOL

Link to comment
Share on other sites

Ah q otimo entao que vc descobriu q eh da geral assim vc fica menos preocupado...

 

 

Nada a ver amigo, vamos ter calma. Com certeza o que o colega quis dizer é que sendo da geral, provavelmente é bem menor e com menos pessoas a bordo, ou seja: menos vítimas. Perfeitamente pertinente o comentário.

Link to comment
Share on other sites

Outra fonte:

 

Avião de pequeno porte cai na Baía de Guanabara

 

 

 

Um avião particular de pequeno porte, com três passageiros a bordo, caiu na manhã desta quinta-feira na Baía de Guanabara, próximo à cabeceira do aeroporto Santos Dumont, no Centro do Rio de Janeiro. As três pessoas foram resgatadas com vida.

 

As operações de pousos e decolagens estavam suspensas por volta das 10h. Ainda não se sabe o que causou a queda do aparelho. Um catamarã passava pelo local e ajudou a resgatar as vítimas. Um caminhão do Corpo de Bombeiros e uma lancha da Capitania dos Portos auxiliam o trabalho.

 

De acordo com as primeiras informações, o piloto não teria conseguido obter velocidade suficiente para decolar no sentido da Ponte Rio-Niterói, por volta de 9h30.

 

Fonte: Terra

Link to comment
Share on other sites

Se foi em pouso e ele esta na cabeceira da 20L, entao provavelmente ele pousou pela 02R, tocou bem em frente (nao obrigatoriamente), pneu estourado, e escorregou para a agua..

 

SBRJ 121300Z 02003KT CAVOK 21/15 Q1025=

SBRJ 121200Z 06003KT CAVOK 20/15 Q1024=

SBRJ 121100Z 06004KT CAVOK 20/15 Q1024=

SBRJ 121000Z 06006KT CAVOK 19/15 Q1024=

SBRJ 120900Z 06006KT CAVOK 19/15 Q1024=

Link to comment
Share on other sites

Avião cai na Baía de Guanabara no Rio

O Corpo de Bombeiros está tentando içar a aeronave. O aeroporto Santos Dumont está fechado para pousos e decolagens

iG Rio de Janeiro | 12/08/2010 10:00 - Atualizada às 10:25

Mudar o tamanho da letra: A+ A-

Um avião de pequeno porte caiu na Baía de Guanabara, na cabeceira de uma das pistas do Aeroporto Santos Dumont, no Centro do Rio de Janeiro, na manhã desta quinta-feira. Segundo a Infraero, a aeronave pousou às 9h26 quando um dos pneus estourou e ela derrapou na pista. O avião pertence a Ocean Air Táxi Aéreo. De acordo com a Infraero, um comandante, um co-piloto e um despachante estavam a bordo e foram resgatados sem maiores ferimentos.

 

O Santos Dumont está fechado para pousos e decolagens. Não há previsão para reabertura do aeroporto. Com ajuda de cabos, o Corpo de Bombeiros está tentando içar o avião. O bico da aeronave ficou danificado.

 

Aguarde mais informações.

 

isso aí foi retirado do IG.

 

cada um diz uma coisa...agora, to escutando a fonia e eles acabaram de abrir a pista 02 auxiliar do Santos Dumont para pouso.

 

Link to comment
Share on other sites

(...)

cada um diz uma coisa...agora, to escutando a fonia e eles acabaram de abrir a pista 02 auxiliar do Santos Dumont para pouso.

A Globonews esta com imagens em directo de la. Se pousar alguem e der para ver aviso para confirmar a info

 

Link to comment
Share on other sites

A Globonews esta com imagens em directo de la. Se pousar alguem e der para ver aviso para confirmar a info

 

mas a info da abertura da 02 auxiliar é verídica, to ouvibdo na fonia.

 

quando faloq ue cada um diz uma coisa me refiro às notícias veiculadas por essa nossa lamentável imprensa..

Link to comment
Share on other sites

Archived

This topic is now archived and is closed to further replies.

Guest
This topic is now closed to further replies.

×
×
  • Create New...

Important Information

Saiba os termos, regras e políticas de privacidade